Current Weather

Monterey Rgnl

Monterey, California (KMRY)

Report from: Wednesday, April 24, 2024 11:54 AM PDT
Current time: Wednesday, April 24, 2024 12:28 PM PDT

Nearby weather – Weather history – Daily summaries
Weather forecast

Temperature15.6°C (60.1°F)
Dew point5.6°C (42.1°F)
Winds 9 kts (4.6 m/s, 10.4 mph) Vrb
Winds variableWinds variable from South-Southwest (210°) to West (270°)
Visibility10 mi. (16.1 km)
Clouds Ceiling: Overcast 4,100 ft. (1,250 m)
Altimeter30.10 in.Hg (1019 mB)
Relative humidity51 %
Density altitude-33 ft. (-10 m)
Sea-level pressure102.0 kPa (1020 mB, 30.13 in.Hg)
Remarks Automated weather observing station with precipitation discriminator
Flight conditions Visual Meteorological Conditions
Raw dataKMRY 241854Z 24009KT 210V270 10SM OVC041 16/06 A3010 RMK AO2 SLP203 T01560056
An error has occurred. This application may no longer respond until reloaded. Reload 🗙